createdAt,value
2023-05-09T00:00:13.057Z,72.48
2023-05-09T00:02:40.047Z,72.60
2023-05-09T00:05:06.969Z,73.03
2023-05-09T00:07:33.972Z,73.57
2023-05-09T00:10:01.074Z,73.49
2023-05-09T00:12:28.335Z,71.87
2023-05-09T00:14:55.030Z,72.03
2023-05-09T00:17:21.574Z,72.22
2023-05-09T00:19:49.059Z,72.40
2023-05-09T00:22:16.406Z,72.12
2023-05-09T00:24:43.031Z,72.58
2023-05-09T00:27:09.622Z,72.27
2023-05-09T00:29:36.159Z,73.20
2023-05-09T00:32:02.739Z,74.06
2023-05-09T00:34:29.299Z,72.07
2023-05-09T00:36:55.853Z,72.01
2023-05-09T00:39:22.456Z,71.47
2023-05-09T00:41:49.031Z,71.49
2023-05-09T00:44:15.534Z,72.59
2023-05-09T00:46:42.102Z,72.21
2023-05-09T00:49:08.631Z,72.54
2023-05-09T00:51:36.735Z,72.33
2023-05-09T00:54:03.416Z,72.67
2023-05-09T00:56:29.978Z,72.60
2023-05-09T00:58:56.616Z,72.41
2023-05-09T01:01:23.194Z,72.16
2023-05-09T01:03:50.128Z,72.68
2023-05-09T01:06:25.783Z,72.24
2023-05-09T01:09:18.011Z,72.48
2023-05-09T01:14:59.298Z,71.78
2023-05-09T01:18:03.780Z,72.32
2023-05-09T01:20:32.617Z,72.34
2023-05-09T01:23:25.306Z,72.87
2023-05-09T01:26:21.437Z,72.41
2023-05-09T01:29:09.671Z,72.81
2023-05-09T01:31:38.782Z,73.10
2023-05-09T01:34:05.885Z,73.17
2023-05-09T01:36:32.733Z,73.35
2023-05-09T01:38:59.776Z,74.22
2023-05-09T01:41:28.349Z,73.55
2023-05-09T01:43:55.526Z,73.76
2023-05-09T01:46:22.755Z,73.56
2023-05-09T01:48:50.459Z,73.58
2023-05-09T01:51:17.240Z,73.47
2023-05-09T01:53:44.340Z,73.11
2023-05-09T01:56:12.019Z,73.51
2023-05-09T01:58:39.370Z,73.18
2023-05-09T02:01:06.133Z,73.40
2023-05-09T02:03:33.077Z,73.50
2023-05-09T02:06:00.241Z,73.84
2023-05-09T02:08:26.723Z,74.24
2023-05-09T02:10:53.256Z,73.95
2023-05-09T02:13:19.903Z,75.31
2023-05-09T02:15:46.864Z,74.91
2023-05-09T02:18:13.327Z,75.46
2023-05-09T02:20:40.267Z,75.40
2023-05-09T02:23:06.799Z,75.75
2023-05-09T02:25:34.221Z,75.95
2023-05-09T02:28:01.727Z,76.41
2023-05-09T02:30:32.642Z,76.56
2023-05-09T02:33:05.693Z,76.36
2023-05-09T02:35:32.447Z,75.73
2023-05-09T02:37:59.775Z,76.49
2023-05-09T02:40:30.106Z,76.41
2023-05-09T02:42:57.191Z,76.21
2023-05-09T02:45:23.767Z,76.67
2023-05-09T02:47:50.303Z,76.85
2023-05-09T02:50:17.845Z,76.35
2023-05-09T02:52:44.717Z,77.27
2023-05-09T02:55:11.229Z,76.83
2023-05-09T02:57:37.704Z,76.89
2023-05-09T03:00:05.252Z,76.37
2023-05-09T03:02:31.832Z,76.72
2023-05-09T03:04:58.368Z,76.30
2023-05-09T03:07:24.831Z,76.23
2023-05-09T03:09:51.435Z,76.68
2023-05-09T03:12:17.922Z,76.30
2023-05-09T03:14:44.448Z,76.14
2023-05-09T03:17:10.937Z,76.22
2023-05-09T03:19:37.436Z,75.91
2023-05-09T03:22:03.915Z,76.73
2023-05-09T03:24:30.434Z,76.34
2023-05-09T03:26:56.896Z,76.54
2023-05-09T03:29:23.360Z,75.88
2023-05-09T03:31:49.860Z,76.63
2023-05-09T03:34:16.405Z,76.74
2023-05-09T03:36:43.057Z,77.42
2023-05-09T03:39:09.755Z,77.03
2023-05-09T03:41:36.938Z,76.70
2023-05-09T03:44:04.577Z,76.84
2023-05-09T03:46:31.110Z,76.57
2023-05-09T03:48:57.622Z,76.20
2023-05-09T03:51:24.209Z,76.12
2023-05-09T03:53:50.746Z,76.78
2023-05-09T03:56:17.265Z,75.77
2023-05-09T03:58:43.788Z,75.79
2023-05-09T04:01:10.290Z,76.13
2023-05-09T04:03:36.846Z,76.13
2023-05-09T04:06:03.518Z,76.54
2023-05-09T04:08:30.052Z,76.03
2023-05-09T04:10:56.654Z,77.07
2023-05-09T04:13:23.271Z,76.61
2023-05-09T04:15:49.888Z,77.28
2023-05-09T04:18:16.429Z,77.40
2023-05-09T04:20:42.906Z,77.61
2023-05-09T04:23:09.406Z,77.64
2023-05-09T04:25:35.925Z,77.43
2023-05-09T04:28:02.463Z,77.30
2023-05-09T04:30:29.017Z,77.15
2023-05-09T04:32:55.554Z,77.26
2023-05-09T04:35:22.652Z,78.17
2023-05-09T04:37:49.329Z,78.34
2023-05-09T04:40:15.801Z,77.30
2023-05-09T04:42:42.365Z,76.54
2023-05-09T04:45:09.345Z,76.24
2023-05-09T04:47:35.831Z,77.00
2023-05-09T04:50:02.402Z,78.05
2023-05-09T04:52:28.948Z,76.83
2023-05-09T04:54:55.438Z,75.40
2023-05-09T04:57:22.039Z,75.39
2023-05-09T04:59:48.514Z,75.71
2023-05-09T05:02:14.996Z,74.82
2023-05-09T05:04:41.510Z,74.31
2023-05-09T05:07:08.005Z,73.44
2023-05-09T05:09:34.519Z,71.86
2023-05-09T05:12:03.594Z,70.54
2023-05-09T05:14:30.772Z,69.82
2023-05-09T05:16:57.284Z,69.05
2023-05-09T05:19:23.804Z,68.43
2023-05-09T05:21:50.328Z,68.28
2023-05-09T05:24:16.857Z,68.63
2023-05-09T05:26:43.356Z,68.66
2023-05-09T05:29:09.933Z,68.61
2023-05-09T05:31:36.587Z,68.40
2023-05-09T05:34:03.432Z,67.95
2023-05-09T05:36:29.951Z,68.02
2023-05-09T05:38:56.441Z,67.10
2023-05-09T05:41:22.967Z,67.67
2023-05-09T05:43:49.473Z,67.58
2023-05-09T05:46:16.190Z,66.63
2023-05-09T05:48:42.744Z,68.23
2023-05-09T05:51:09.279Z,67.19
2023-05-09T05:53:35.753Z,66.77
2023-05-09T05:56:02.419Z,66.76
2023-05-09T05:58:28.918Z,67.83
2023-05-09T06:00:55.399Z,66.34
2023-05-09T06:03:21.989Z,65.58
2023-05-09T06:05:48.633Z,65.63
2023-05-09T06:08:15.122Z,65.20
2023-05-09T06:10:41.647Z,63.42
2023-05-09T06:13:08.193Z,62.30
2023-05-09T06:15:34.739Z,61.25
2023-05-09T06:18:01.320Z,59.85
2023-05-09T06:20:27.973Z,59.04
2023-05-09T06:22:54.475Z,58.24
2023-05-09T06:25:21.025Z,56.41
2023-05-09T06:27:47.506Z,54.00
2023-05-09T06:30:24.638Z,51.73
2023-05-09T06:32:53.780Z,50.14
2023-05-09T06:35:20.363Z,50.05
2023-05-09T06:37:48.565Z,49.02
2023-05-09T06:40:15.855Z,47.70
2023-05-09T06:42:42.594Z,47.08
2023-05-09T06:45:09.534Z,46.90
2023-05-09T06:47:36.142Z,46.31
2023-05-09T06:50:02.697Z,47.17
2023-05-09T06:52:29.165Z,47.34
2023-05-09T06:54:55.753Z,49.80
2023-05-09T06:57:22.226Z,51.10
2023-05-09T06:59:48.722Z,52.01
2023-05-09T07:02:15.180Z,53.01
2023-05-09T07:04:41.741Z,52.64
2023-05-09T07:07:08.215Z,51.90
2023-05-09T07:09:34.674Z,50.66
2023-05-09T07:12:01.175Z,50.07
2023-05-09T07:14:27.639Z,49.08
2023-05-09T07:16:56.512Z,48.44
2023-05-09T07:19:28.899Z,46.27
2023-05-09T07:21:55.363Z,45.30
2023-05-09T07:24:21.848Z,43.21
2023-05-09T07:26:48.322Z,40.68
2023-05-09T07:29:14.829Z,38.69
2023-05-09T07:31:41.330Z,38.22
2023-05-09T07:34:07.962Z,38.79
2023-05-09T07:36:35.491Z,38.97
2023-05-09T07:39:02.065Z,39.22
2023-05-09T07:41:28.587Z,39.90
2023-05-09T07:43:55.065Z,38.65
2023-05-09T07:46:21.589Z,39.58
2023-05-09T07:48:48.269Z,39.52
2023-05-09T07:51:14.794Z,38.38
2023-05-09T07:53:41.270Z,38.49
2023-05-09T07:56:07.862Z,37.92
2023-05-09T07:58:34.740Z,37.45
2023-05-09T08:01:01.187Z,36.47
2023-05-09T08:03:27.805Z,36.00
2023-05-09T08:05:55.003Z,35.99
2023-05-09T08:08:21.920Z,36.11
2023-05-09T08:10:48.420Z,35.31
2023-05-09T08:13:14.970Z,35.20
2023-05-09T08:15:43.115Z,36.41
2023-05-09T08:18:09.610Z,36.92
2023-05-09T08:20:36.185Z,38.45
2023-05-09T08:23:02.708Z,38.71
2023-05-09T08:25:29.220Z,37.74
2023-05-09T08:27:55.706Z,39.17
2023-05-09T08:30:23.062Z,37.86
2023-05-09T08:32:49.714Z,40.18
2023-05-09T08:35:17.032Z,40.23
2023-05-09T08:37:43.742Z,40.59
2023-05-09T08:40:10.502Z,39.88
2023-05-09T08:42:37.475Z,40.93
2023-05-09T08:45:11.576Z,41.13
2023-05-09T08:47:39.733Z,40.67
2023-05-09T08:50:06.975Z,41.30
2023-05-09T08:52:34.162Z,43.10
2023-05-09T08:55:01.990Z,42.38
2023-05-09T08:57:28.676Z,42.05
2023-05-09T08:59:55.580Z,42.23
2023-05-09T09:02:22.253Z,40.69
2023-05-09T09:04:48.758Z,41.50
2023-05-09T09:07:15.363Z,41.05
2023-05-09T09:09:47.143Z,41.87
2023-05-09T09:12:15.543Z,43.04
2023-05-09T09:14:50.200Z,43.75
2023-05-09T09:17:19.102Z,42.40
2023-05-09T09:19:49.189Z,43.61
2023-05-09T09:22:19.093Z,42.59
2023-05-09T09:24:45.704Z,42.00
2023-05-09T09:27:12.289Z,42.21
2023-05-09T09:29:38.774Z,40.90
2023-05-09T09:32:06.501Z,42.53
2023-05-09T09:34:33.124Z,42.09
2023-05-09T09:36:59.630Z,42.64
2023-05-09T09:39:26.168Z,42.57
2023-05-09T09:41:52.694Z,42.46
2023-05-09T09:44:20.923Z,42.95
2023-05-09T09:46:51.335Z,41.59
2023-05-09T09:49:19.663Z,43.69
2023-05-09T09:51:50.921Z,43.75
2023-05-09T09:54:17.738Z,42.80
2023-05-09T09:56:49.039Z,43.29
2023-05-09T09:59:25.137Z,41.59
2023-05-09T10:02:07.159Z,41.91
2023-05-09T10:04:36.636Z,40.83
2023-05-09T10:07:11.095Z,41.38
2023-05-09T10:09:39.133Z,41.13
2023-05-09T10:12:07.584Z,40.31
2023-05-09T10:14:36.174Z,41.27
2023-05-09T10:17:04.821Z,40.78
2023-05-09T10:19:31.732Z,41.96
2023-05-09T10:22:06.185Z,41.82
2023-05-09T10:24:42.505Z,40.86
2023-05-09T10:27:12.703Z,42.88
2023-05-09T10:29:45.681Z,42.80
2023-05-09T10:32:17.593Z,41.90
2023-05-09T10:34:48.112Z,41.57
2023-05-09T10:37:16.129Z,42.34
2023-05-09T10:39:43.026Z,41.50
2023-05-09T10:42:09.762Z,40.19
2023-05-09T10:44:37.376Z,39.94
2023-05-09T10:47:04.221Z,39.40
2023-05-09T10:49:30.885Z,39.74
2023-05-09T10:51:57.475Z,41.96
2023-05-09T10:54:30.890Z,40.49
2023-05-09T10:56:57.748Z,39.24
2023-05-09T10:59:37.323Z,40.14
2023-05-09T11:02:04.875Z,40.09
2023-05-09T11:04:32.104Z,40.01
2023-05-09T11:07:00.339Z,40.25
2023-05-09T11:09:38.125Z,40.13
2023-05-09T11:12:04.633Z,41.21
2023-05-09T11:14:44.874Z,40.92
2023-05-09T11:17:31.810Z,42.07
2023-05-09T11:20:00.718Z,42.40
2023-05-09T11:22:31.635Z,42.86
2023-05-09T11:25:09.387Z,42.37
2023-05-09T11:27:46.472Z,42.46
2023-05-09T11:30:15.144Z,41.97
2023-05-09T11:32:43.229Z,42.99
2023-05-09T11:35:19.831Z,42.62
2023-05-09T11:37:48.303Z,43.37
2023-05-09T11:40:16.645Z,41.72
2023-05-09T11:42:44.639Z,40.69
2023-05-09T11:45:12.615Z,42.19
2023-05-09T11:47:39.505Z,39.99
2023-05-09T11:50:10.427Z,42.24
2023-05-09T11:52:38.054Z,41.97
2023-05-09T11:55:14.252Z,41.19
2023-05-09T11:57:52.782Z,38.61
2023-05-09T12:00:24.020Z,40.72
2023-05-09T12:02:51.505Z,39.85
2023-05-09T12:05:21.187Z,39.42
2023-05-09T12:07:48.094Z,39.17
2023-05-09T12:10:22.093Z,39.55
2023-05-09T12:12:52.827Z,39.11
2023-05-09T12:15:22.042Z,39.39
2023-05-09T12:18:01.165Z,39.92
2023-05-09T12:20:27.711Z,40.25
2023-05-09T12:22:54.206Z,39.90
2023-05-09T12:25:22.652Z,39.82
2023-05-09T12:27:49.206Z,40.26
2023-05-09T12:30:15.829Z,41.43
2023-05-09T12:32:42.605Z,40.67
2023-05-09T12:35:10.076Z,41.03
2023-05-09T12:37:36.635Z,40.86
2023-05-09T12:40:08.415Z,40.94
2023-05-09T12:42:35.714Z,41.76
2023-05-09T12:45:07.143Z,41.46
2023-05-09T12:47:34.001Z,43.04
2023-05-09T12:50:02.341Z,43.35
2023-05-09T12:52:46.938Z,43.90
2023-05-09T12:55:25.382Z,44.70
2023-05-09T12:58:02.558Z,45.46
2023-05-09T13:00:29.487Z,47.10
2023-05-09T13:02:56.083Z,47.91
2023-05-09T13:05:23.234Z,48.22
2023-05-09T13:07:51.386Z,48.87
2023-05-09T13:10:25.526Z,49.34
2023-05-09T13:12:52.407Z,49.77
2023-05-09T13:15:21.395Z,49.99
2023-05-09T13:17:49.475Z,51.17
2023-05-09T13:20:16.681Z,49.59
2023-05-09T13:22:43.824Z,52.92
2023-05-09T13:25:10.844Z,52.72
2023-05-09T13:27:37.355Z,51.11
2023-05-09T13:30:04.919Z,51.37
2023-05-09T13:32:31.480Z,52.62
2023-05-09T13:34:58.084Z,55.06
2023-05-09T13:37:24.571Z,53.99
2023-05-09T13:39:51.096Z,53.06
2023-05-09T13:42:19.185Z,54.23
2023-05-09T13:44:45.953Z,54.15
2023-05-09T13:47:12.541Z,54.69
2023-05-09T13:49:39.085Z,55.71
2023-05-09T13:52:06.154Z,58.43
2023-05-09T13:54:32.675Z,57.15
2023-05-09T13:56:59.158Z,59.91
2023-05-09T13:59:25.632Z,60.72
2023-05-09T14:01:52.182Z,62.96
2023-05-09T14:04:18.664Z,64.07
2023-05-09T14:06:45.212Z,64.88
2023-05-09T14:09:11.687Z,61.76
2023-05-09T14:11:38.140Z,63.01
2023-05-09T14:14:04.607Z,62.45
2023-05-09T14:16:31.194Z,64.60
2023-05-09T14:18:57.710Z,64.58
2023-05-09T14:21:24.181Z,64.65
2023-05-09T14:23:50.681Z,63.79
2023-05-09T14:26:17.695Z,65.11
2023-05-09T14:28:44.256Z,67.30
2023-05-09T14:31:10.740Z,66.55
2023-05-09T14:33:38.315Z,67.59
2023-05-09T14:36:05.295Z,66.53
2023-05-09T14:38:31.821Z,65.49
2023-05-09T14:40:58.347Z,65.51
2023-05-09T14:43:24.844Z,65.45
2023-05-09T14:45:51.348Z,64.06
2023-05-09T14:48:17.850Z,63.92
2023-05-09T14:50:44.430Z,64.65
2023-05-09T14:53:10.958Z,64.46
2023-05-09T14:55:37.448Z,66.75
2023-05-09T14:58:03.960Z,65.80
2023-05-09T15:00:30.442Z,64.85
2023-05-09T15:02:57.162Z,65.57
2023-05-09T15:05:23.765Z,68.68
2023-05-09T15:07:50.231Z,67.20
2023-05-09T15:10:17.014Z,69.76
2023-05-09T15:12:43.746Z,72.82
2023-05-09T15:15:18.374Z,72.58
2023-05-09T15:17:45.139Z,74.00
2023-05-09T15:20:12.426Z,73.81
2023-05-09T15:22:39.006Z,74.06
2023-05-09T15:25:06.303Z,74.99
2023-05-09T15:27:33.025Z,75.43
2023-05-09T15:29:59.557Z,77.10
2023-05-09T15:32:26.234Z,76.34
2023-05-09T15:34:53.041Z,75.60
2023-05-09T15:37:19.554Z,74.94
2023-05-09T15:39:46.141Z,74.96
2023-05-09T15:42:13.324Z,74.62
2023-05-09T15:44:40.479Z,75.33
2023-05-09T15:47:07.116Z,75.85
2023-05-09T15:49:33.929Z,77.50
2023-05-09T15:52:03.302Z,78.57
2023-05-09T15:54:29.819Z,77.87
2023-05-09T15:56:56.311Z,79.63
2023-05-09T15:59:22.788Z,80.50
2023-05-09T16:01:49.364Z,79.39
2023-05-09T16:04:15.828Z,80.21
2023-05-09T16:06:42.367Z,79.75
2023-05-09T16:09:08.839Z,80.87
2023-05-09T16:11:35.779Z,81.06
2023-05-09T16:14:02.398Z,79.56
2023-05-09T16:16:28.920Z,78.87
2023-05-09T16:18:55.426Z,77.72
2023-05-09T16:21:21.956Z,78.57
2023-05-09T16:23:48.600Z,79.33
2023-05-09T16:26:15.072Z,82.58
2023-05-09T16:28:41.574Z,82.35
2023-05-09T16:31:08.120Z,85.11
2023-05-09T16:33:34.966Z,84.09
2023-05-09T16:36:01.520Z,84.11
2023-05-09T16:38:28.780Z,85.45
2023-05-09T16:40:55.363Z,86.89
2023-05-09T16:43:21.971Z,85.65
2023-05-09T16:45:48.569Z,85.13
2023-05-09T16:48:17.844Z,85.69
2023-05-09T16:50:44.668Z,86.75
2023-05-09T16:53:11.984Z,87.43
2023-05-09T16:55:38.573Z,86.84
2023-05-09T16:58:05.132Z,88.30
2023-05-09T17:00:31.617Z,87.73
2023-05-09T17:02:58.419Z,88.25
2023-05-09T17:05:25.025Z,89.73
2023-05-09T17:07:51.590Z,91.11
2023-05-09T17:10:18.295Z,92.10
2023-05-09T17:12:44.988Z,89.77
2023-05-09T17:15:11.601Z,90.24
2023-05-09T17:17:38.153Z,92.04
2023-05-09T17:20:05.164Z,91.65
2023-05-09T17:22:31.742Z,91.66
2023-05-09T17:24:58.286Z,93.45
2023-05-09T17:27:24.775Z,92.44
2023-05-09T17:29:51.264Z,92.13
2023-05-09T17:32:17.783Z,90.40
2023-05-09T17:34:44.252Z,92.70
2023-05-09T17:37:13.580Z,92.73
2023-05-09T17:39:41.213Z,92.88
2023-05-09T17:42:08.165Z,93.90
2023-05-09T17:44:34.769Z,93.33
2023-05-09T17:47:01.448Z,92.51
2023-05-09T17:49:28.282Z,91.79
2023-05-09T17:51:54.801Z,91.67
2023-05-09T17:54:21.263Z,93.71
2023-05-09T17:56:47.931Z,94.11
2023-05-09T17:59:14.425Z,94.02
2023-05-09T18:01:41.095Z,95.26
2023-05-09T18:04:07.700Z,96.31
2023-05-09T18:06:34.236Z,94.70
2023-05-09T18:09:00.738Z,95.70
2023-05-09T18:11:27.346Z,94.08
2023-05-09T18:13:53.882Z,95.39
2023-05-09T18:16:20.442Z,95.28
2023-05-09T18:18:47.167Z,94.48
2023-05-09T18:21:13.888Z,92.14
2023-05-09T18:23:41.023Z,92.94
2023-05-09T18:26:07.747Z,92.05
2023-05-09T18:28:34.303Z,91.88
2023-05-09T18:31:01.376Z,91.98
2023-05-09T18:33:28.632Z,90.78
2023-05-09T18:35:55.519Z,91.20
2023-05-09T18:38:22.099Z,89.16
2023-05-09T18:40:48.650Z,89.88
2023-05-09T18:43:15.246Z,89.37
2023-05-09T18:45:41.873Z,88.75
2023-05-09T18:48:08.472Z,86.51
2023-05-09T18:50:35.004Z,85.63
2023-05-09T18:53:01.486Z,87.90
2023-05-09T18:55:28.051Z,86.34
2023-05-09T18:57:54.586Z,85.62
2023-05-09T19:00:21.095Z,84.74
2023-05-09T19:02:47.614Z,85.49
2023-05-09T19:05:14.418Z,89.12
2023-05-09T19:07:40.916Z,87.46
2023-05-09T19:10:07.679Z,89.26
2023-05-09T19:12:34.771Z,88.44
2023-05-09T19:15:02.213Z,87.39
2023-05-09T19:17:28.910Z,86.86
2023-05-09T19:19:55.606Z,86.69
2023-05-09T19:22:22.100Z,86.03
2023-05-09T19:24:48.570Z,84.10
2023-05-09T19:27:15.312Z,83.42
2023-05-09T19:29:41.792Z,82.14
2023-05-09T19:32:08.257Z,81.18
2023-05-09T19:34:34.727Z,83.15
2023-05-09T19:37:01.197Z,83.17
2023-05-09T19:39:27.808Z,83.08
2023-05-09T19:41:54.428Z,85.06
2023-05-09T19:44:21.267Z,87.30
2023-05-09T19:46:49.024Z,90.70
2023-05-09T19:49:16.520Z,92.60
2023-05-09T19:51:44.270Z,92.40
2023-05-09T19:54:10.748Z,94.75
2023-05-09T19:56:37.249Z,96.33
2023-05-09T19:59:03.781Z,96.09
2023-05-09T20:01:30.325Z,95.35
2023-05-09T20:03:57.008Z,96.33
2023-05-09T20:06:23.614Z,96.79
2023-05-09T20:08:50.289Z,94.99
2023-05-09T20:11:16.805Z,94.77
2023-05-09T20:13:43.339Z,96.16
2023-05-09T20:16:11.889Z,94.66
2023-05-09T20:18:38.452Z,94.30
2023-05-09T20:21:05.005Z,93.97
2023-05-09T20:23:31.522Z,93.20
2023-05-09T20:25:58.020Z,95.33
2023-05-09T20:28:26.444Z,95.78
2023-05-09T20:30:53.908Z,94.61
2023-05-09T20:33:20.610Z,94.93
2023-05-09T20:35:47.302Z,94.72
2023-05-09T20:38:13.860Z,93.85
2023-05-09T20:40:40.419Z,94.56
2023-05-09T20:43:06.928Z,93.75
2023-05-09T20:45:33.473Z,92.81
2023-05-09T20:47:59.982Z,92.35
2023-05-09T20:50:26.523Z,94.39
2023-05-09T20:52:53.110Z,92.32
2023-05-09T20:55:19.751Z,91.93
2023-05-09T20:57:46.277Z,91.27
2023-05-09T21:00:13.447Z,91.87
2023-05-09T21:02:40.092Z,93.21
2023-05-09T21:05:06.932Z,93.23
2023-05-09T21:07:33.623Z,93.11
2023-05-09T21:10:00.196Z,92.96
2023-05-09T21:12:26.714Z,94.51
2023-05-09T21:14:53.195Z,94.08
2023-05-09T21:17:19.754Z,92.20
2023-05-09T21:19:46.314Z,92.60
2023-05-09T21:22:12.878Z,90.88
2023-05-09T21:24:39.394Z,90.77
2023-05-09T21:27:05.856Z,89.70
2023-05-09T21:29:32.800Z,88.34
2023-05-09T21:31:59.432Z,87.84
2023-05-09T21:34:25.966Z,89.81
2023-05-09T21:36:52.482Z,89.41
2023-05-09T21:39:19.075Z,88.76
2023-05-09T21:41:45.561Z,87.64
2023-05-09T21:44:12.092Z,87.06
2023-05-09T21:46:39.799Z,88.07
2023-05-09T21:49:06.492Z,88.18
2023-05-09T21:51:34.297Z,87.40
2023-05-09T21:54:00.834Z,86.61
2023-05-09T21:56:27.341Z,85.16
2023-05-09T21:58:53.831Z,84.63
2023-05-09T22:01:20.427Z,83.62
2023-05-09T22:03:47.164Z,83.08
2023-05-09T22:06:13.785Z,83.95
2023-05-09T22:08:40.342Z,85.15
2023-05-09T22:11:06.823Z,83.07
2023-05-09T22:13:33.314Z,83.80
2023-05-09T22:15:59.815Z,83.53
2023-05-09T22:18:26.565Z,83.34
2023-05-09T22:20:53.192Z,81.74
2023-05-09T22:23:19.759Z,82.28
2023-05-09T22:25:46.299Z,83.46
2023-05-09T22:28:12.897Z,83.86
2023-05-09T22:30:39.398Z,83.10
2023-05-09T22:33:05.973Z,84.98
2023-05-09T22:35:32.607Z,82.54
2023-05-09T22:37:59.244Z,81.86
2023-05-09T22:40:25.778Z,81.18
2023-05-09T22:42:52.334Z,80.98
2023-05-09T22:45:20.170Z,80.96
2023-05-09T22:47:46.730Z,80.64
2023-05-09T22:50:13.308Z,80.68
2023-05-09T22:52:39.922Z,80.25
2023-05-09T22:55:07.056Z,79.87
2023-05-09T22:57:33.573Z,80.80
2023-05-09T23:00:00.070Z,79.88
2023-05-09T23:02:26.632Z,79.37
2023-05-09T23:04:53.207Z,81.71
2023-05-09T23:07:19.708Z,80.34
2023-05-09T23:09:46.249Z,81.51
2023-05-09T23:12:12.725Z,82.98
2023-05-09T23:14:39.255Z,81.96
2023-05-09T23:17:06.029Z,82.71
2023-05-09T23:19:32.515Z,84.23
2023-05-09T23:21:59.412Z,83.82
2023-05-09T23:24:25.907Z,85.08
2023-05-09T23:26:53.788Z,84.83
2023-05-09T23:29:20.320Z,86.45
2023-05-09T23:31:47.077Z,86.97
2023-05-09T23:34:13.635Z,88.00
2023-05-09T23:36:40.406Z,88.64
2023-05-09T23:39:06.942Z,86.98
2023-05-09T23:41:33.418Z,86.62
2023-05-09T23:43:59.887Z,83.70
2023-05-09T23:46:26.784Z,82.68
2023-05-09T23:48:53.405Z,82.96
2023-05-09T23:51:19.921Z,84.89
2023-05-09T23:53:46.491Z,86.22
2023-05-09T23:56:12.950Z,86.37
2023-05-09T23:58:39.551Z,84.14
